sensor_id;sensor_type;location;lat;lon;timestamp;pressure;altitude;pressure_sealevel;temperature;humidity
13314;BME280;6725;48.112;11.604;2023-03-20T00:01:33;94172.22;;;9.08;100.00
13314;BME280;6725;48.112;11.604;2023-03-20T00:03:58;94168.63;;;9.11;100.00
13314;BME280;6725;48.112;11.604;2023-03-20T00:06:25;94190.91;;;9.06;100.00
13314;BME280;6725;48.112;11.604;2023-03-20T00:08:53;94212.28;;;9.08;100.00
13314;BME280;6725;48.112;11.604;2023-03-20T00:13:52;94225.94;;;9.04;100.00
13314;BME280;6725;48.112;11.604;2023-03-20T00:16:17;94231.41;;;9.04;100.00
13314;BME280;6725;48.112;11.604;2023-03-20T00:18:43;94224.00;;;9.05;100.00
13314;BME280;6725;48.112;11.604;2023-03-20T00:21:16;94217.38;;;9.06;100.00
13314;BME280;6725;48.112;11.604;2023-03-20T00:23:41;94223.03;;;8.95;100.00
13314;BME280;6725;48.112;11.604;2023-03-20T00:26:11;94231.56;;;8.97;100.00
13314;BME280;6725;48.112;11.604;2023-03-20T00:28:42;94222.22;;;8.98;100.00
13314;BME280;6725;48.112;11.604;2023-03-20T00:33:56;94224.56;;;8.96;100.00
13314;BME280;6725;48.112;11.604;2023-03-20T00:36:22;94231.56;;;8.97;100.00
13314;BME280;6725;48.112;11.604;2023-03-20T00:38:48;94224.09;;;9.01;100.00
13314;BME280;6725;48.112;11.604;2023-03-20T00:46:57;94225.63;;;9.02;100.00
13314;BME280;6725;48.112;11.604;2023-03-20T00:49:28;94224.44;;;9.03;100.00
13314;BME280;6725;48.112;11.604;2023-03-20T00:51:55;94225.25;;;9.00;100.00
13314;BME280;6725;48.112;11.604;2023-03-20T00:54:25;94230.72;;;9.00;100.00
13314;BME280;6725;48.112;11.604;2023-03-20T00:56:55;94238.53;;;8.98;100.00
13314;BME280;6725;48.112;11.604;2023-03-20T00:59:25;94240.91;;;8.96;100.00
13314;BME280;6725;48.112;11.604;2023-03-20T01:01:51;94237.16;;;8.90;100.00
13314;BME280;6725;48.112;11.604;2023-03-20T01:04:18;94241.41;;;8.91;100.00
13314;BME280;6725;48.112;11.604;2023-03-20T01:06:44;94247.28;;;8.90;100.00
13314;BME280;6725;48.112;11.604;2023-03-20T01:09:10;94242.66;;;8.87;100.00
13314;BME280;6725;48.112;11.604;2023-03-20T01:11:36;94247.31;;;8.86;100.00
13314;BME280;6725;48.112;11.604;2023-03-20T01:14:03;94253.56;;;8.87;100.00
13314;BME280;6725;48.112;11.604;2023-03-20T01:16:29;94250.06;;;8.86;100.00
13314;BME280;6725;48.112;11.604;2023-03-20T01:18:54;94245.81;;;8.85;100.00
13314;BME280;6725;48.112;11.604;2023-03-20T01:21:20;94254.34;;;8.87;100.00
13314;BME280;6725;48.112;11.604;2023-03-20T01:23:47;94254.75;;;8.86;100.00
13314;BME280;6725;48.112;11.604;2023-03-20T01:26:30;94260.59;;;8.84;100.00
13314;BME280;6725;48.112;11.604;2023-03-20T01:28:57;94257.06;;;8.87;100.00
13314;BME280;6725;48.112;11.604;2023-03-20T01:31:23;94272.28;;;8.85;100.00
13314;BME280;6725;48.112;11.604;2023-03-20T01:33:48;94261.31;;;8.88;100.00
13314;BME280;6725;48.112;11.604;2023-03-20T01:36:15;94279.25;;;8.86;100.00
13314;BME280;6725;48.112;11.604;2023-03-20T01:38:42;94274.63;;;8.83;100.00
13314;BME280;6725;48.112;11.604;2023-03-20T01:41:16;94282.38;;;8.84;100.00
13314;BME280;6725;48.112;11.604;2023-03-20T01:43:44;94283.16;;;8.85;100.00
13314;BME280;6725;48.112;11.604;2023-03-20T01:48:59;94283.22;;;8.81;100.00
13314;BME280;6725;48.112;11.604;2023-03-20T01:51:30;94282.44;;;8.81;100.00
13314;BME280;6725;48.112;11.604;2023-03-20T01:56:35;94290.13;;;8.86;100.00
13314;BME280;6725;48.112;11.604;2023-03-20T01:59:08;94280.00;;;8.86;100.00
13314;BME280;6725;48.112;11.604;2023-03-20T02:01:35;94280.00;;;8.86;100.00
13314;BME280;6725;48.112;11.604;2023-03-20T02:04:02;94289.34;;;8.85;100.00
13314;BME280;6725;48.112;11.604;2023-03-20T02:06:28;94290.88;;;8.86;100.00
13314;BME280;6725;48.112;11.604;2023-03-20T02:08:54;94296.31;;;8.86;100.00
13314;BME280;6725;48.112;11.604;2023-03-20T02:11:23;94294.81;;;8.85;100.00
13314;BME280;6725;48.112;11.604;2023-03-20T02:13:52;94304.16;;;8.84;100.00
13314;BME280;6725;48.112;11.604;2023-03-20T02:16:18;94304.16;;;8.84;100.00
13314;BME280;6725;48.112;11.604;2023-03-20T02:18:46;94308.41;;;8.85;100.00
13314;BME280;6725;48.112;11.604;2023-03-20T02:21:57;94303.34;;;8.87;100.00
13314;BME280;6725;48.112;11.604;2023-03-20T02:47:31;94322.72;;;8.89;100.00
13314;BME280;6725;48.112;11.604;2023-03-20T02:52:53;94320.50;;;8.84;100.00
13314;BME280;6725;48.112;11.604;2023-03-20T02:55:40;94330.59;;;8.84;100.00
13314;BME280;6725;48.112;11.604;2023-03-20T02:58:14;94324.41;;;8.83;100.00
13314;BME280;6725;48.112;11.604;2023-03-20T03:00:50;94330.28;;;8.82;100.00
13314;BME280;6725;48.112;11.604;2023-03-20T03:03:23;94331.09;;;8.79;100.00
13314;BME280;6725;48.112;11.604;2023-03-20T03:05:56;94334.94;;;8.81;100.00
13314;BME280;6725;48.112;11.604;2023-03-20T03:08:24;94339.19;;;8.82;100.00
13314;BME280;6725;48.112;11.604;2023-03-20T03:10:57;94333.00;;;8.82;100.00
13314;BME280;6725;48.112;11.604;2023-03-20T03:13:28;94344.63;;;8.82;100.00
13314;BME280;6725;48.112;11.604;2023-03-20T03:15:59;94339.19;;;8.82;100.00
13314;BME280;6725;48.112;11.604;2023-03-20T03:18:28;94340.75;;;8.83;100.00
13314;BME280;6725;48.112;11.604;2023-03-20T03:20:56;94338.84;;;8.80;100.00
13314;BME280;6725;48.112;11.604;2023-03-20T03:23:33;94341.56;;;8.80;100.00
13314;BME280;6725;48.112;11.604;2023-03-20T03:26:01;94340.78;;;8.80;100.00
13314;BME280;6725;48.112;11.604;2023-03-20T03:28:47;94335.44;;;8.76;100.00
13314;BME280;6725;48.112;11.604;2023-03-20T03:31:16;94339.69;;;8.77;100.00
13314;BME280;6725;48.112;11.604;2023-03-20T03:33:47;94333.88;;;8.75;100.00
13314;BME280;6725;48.112;11.604;2023-03-20T03:39:25;94349.03;;;8.76;100.00
13314;BME280;6725;48.112;11.604;2023-03-20T03:44:26;94349.44;;;8.75;100.00
13314;BME280;6725;48.112;11.604;2023-03-20T03:49:31;94346.72;;;8.75;100.00
13314;BME280;6725;48.112;11.604;2023-03-20T03:52:03;94359.22;;;8.72;100.00
13314;BME280;6725;48.112;11.604;2023-03-20T03:54:43;94353.38;;;8.74;100.00
13314;BME280;6725;48.112;11.604;2023-03-20T03:57:12;94355.31;;;8.73;100.00
13314;BME280;6725;48.112;11.604;2023-03-20T03:59:43;94356.50;;;8.72;100.00
13314;BME280;6725;48.112;11.604;2023-03-20T04:02:11;94365.41;;;8.73;100.00
13314;BME280;6725;48.112;11.604;2023-03-20T04:04:41;94357.25;;;8.73;100.00
13314;BME280;6725;48.112;11.604;2023-03-20T04:07:07;94359.56;;;8.74;100.00
13314;BME280;6725;48.112;11.604;2023-03-20T04:09:32;94362.66;;;8.76;100.00
13314;BME280;6725;48.112;11.604;2023-03-20T04:11:58;94372.34;;;8.77;100.00
13314;BME280;6725;48.112;11.604;2023-03-20T04:14:24;94365.38;;;8.76;100.00
13314;BME280;6725;48.112;11.604;2023-03-20T04:16:49;94371.16;;;8.78;100.00
13314;BME280;6725;48.112;11.604;2023-03-20T04:19:15;94373.13;;;8.78;100.00
13314;BME280;6725;48.112;11.604;2023-03-20T04:21:41;94383.63;;;8.76;100.00
13314;BME280;6725;48.112;11.604;2023-03-20T04:24:06;94383.59;;;8.79;100.00
13314;BME280;6725;48.112;11.604;2023-03-20T04:26:31;94381.34;;;8.74;100.00
13314;BME280;6725;48.112;11.604;2023-03-20T04:28:57;94380.50;;;8.77;100.00
13314;BME280;6725;48.112;11.604;2023-03-20T04:31:22;94392.09;;;8.81;100.00
13314;BME280;6725;48.112;11.604;2023-03-20T04:33:48;94394.47;;;8.79;100.00
13314;BME280;6725;48.112;11.604;2023-03-20T04:36:13;94400.78;;;8.73;100.00
13314;BME280;6725;48.112;11.604;2023-03-20T04:38:39;94400.03;;;8.72;100.00
13314;BME280;6725;48.112;11.604;2023-03-20T04:41:04;94404.78;;;8.68;100.00
13314;BME280;6725;48.112;11.604;2023-03-20T04:43:30;94405.94;;;8.67;100.00
13314;BME280;6725;48.112;11.604;2023-03-20T04:45:56;94409.38;;;8.71;100.00
13314;BME280;6725;48.112;11.604;2023-03-20T04:48:21;94412.88;;;8.72;100.00
13314;BME280;6725;48.112;11.604;2023-03-20T04:50:47;94418.72;;;8.70;100.00
13314;BME280;6725;48.112;11.604;2023-03-20T04:53:13;94414.53;;;8.66;100.00
13314;BME280;6725;48.112;11.604;2023-03-20T04:55:39;94418.50;;;8.61;100.00
13314;BME280;6725;48.112;11.604;2023-03-20T04:58:04;94425.81;;;8.64;100.00
13314;BME280;6725;48.112;11.604;2023-03-20T05:00:29;94422.69;;;8.66;100.00
13314;BME280;6725;48.112;11.604;2023-03-20T05:02:58;94421.16;;;8.65;100.00
13314;BME280;6725;48.112;11.604;2023-03-20T05:05:23;94429.38;;;8.61;100.00
13314;BME280;6725;48.112;11.604;2023-03-20T05:07:50;94435.88;;;8.67;100.00
13314;BME280;6725;48.112;11.604;2023-03-20T05:10:16;94442.94;;;8.65;100.00
13314;BME280;6725;48.112;11.604;2023-03-20T05:12:42;94445.31;;;8.63;100.00
13314;BME280;6725;48.112;11.604;2023-03-20T05:15:07;94446.78;;;8.67;100.00
13314;BME280;6725;48.112;11.604;2023-03-20T05:17:33;94446.66;;;8.74;100.00
13314;BME280;6725;48.112;11.604;2023-03-20T05:19:58;94447.13;;;8.69;100.00
13314;BME280;6725;48.112;11.604;2023-03-20T05:22:24;94461.56;;;8.66;100.00
13314;BME280;6725;48.112;11.604;2023-03-20T05:24:49;94460.34;;;8.71;100.00
13314;BME280;6725;48.112;11.604;2023-03-20T05:27:15;94467.38;;;8.68;100.00
13314;BME280;6725;48.112;11.604;2023-03-20T05:29:41;94472.44;;;8.66;100.00
13314;BME280;6725;48.112;11.604;2023-03-20T05:32:06;94477.19;;;8.62;100.00
13314;BME280;6725;48.112;11.604;2023-03-20T05:34:31;94481.09;;;8.61;100.00
13314;BME280;6725;48.112;11.604;2023-03-20T05:36:57;94494.31;;;8.59;100.00
13314;BME280;6725;48.112;11.604;2023-03-20T05:39:22;94498.94;;;8.62;100.00
13314;BME280;6725;48.112;11.604;2023-03-20T05:41:47;94514.50;;;8.62;100.00
13314;BME280;6725;48.112;11.604;2023-03-20T05:44:13;94521.53;;;8.59;100.00
13314;BME280;6725;48.112;11.604;2023-03-20T05:46:38;94537.06;;;8.62;100.00
13314;BME280;6725;48.112;11.604;2023-03-20T05:49:04;94545.56;;;8.64;100.00
13314;BME280;6725;48.112;11.604;2023-03-20T05:51:29;94554.91;;;8.63;100.00
13314;BME280;6725;48.112;11.604;2023-03-20T05:53:54;94560.72;;;8.65;100.00
13314;BME280;6725;48.112;11.604;2023-03-20T05:56:20;94573.63;;;8.61;100.00
13314;BME280;6725;48.112;11.604;2023-03-20T05:58:45;94582.94;;;8.60;100.00
13314;BME280;6725;48.112;11.604;2023-03-20T06:01:11;94589.94;;;8.61;100.00
13314;BME280;6725;48.112;11.604;2023-03-20T06:03:36;94603.88;;;8.63;100.00
13314;BME280;6725;48.112;11.604;2023-03-20T06:06:02;94620.94;;;8.67;100.00
13314;BME280;6725;48.112;11.604;2023-03-20T06:08:28;94641.28;;;8.59;100.00
13314;BME280;6725;48.112;11.604;2023-03-20T06:10:54;94643.53;;;8.64;100.00
13314;BME280;6725;48.112;11.604;2023-03-20T06:13:20;94645.84;;;8.66;100.00
13314;BME280;6725;48.112;11.604;2023-03-20T06:15:45;94662.22;;;8.62;100.00
13314;BME280;6725;48.112;11.604;2023-03-20T06:18:11;94672.63;;;8.71;100.00
13314;BME280;6725;48.112;11.604;2023-03-20T06:20:36;94674.53;;;8.74;100.00
13314;BME280;6725;48.112;11.604;2023-03-20T06:23:01;94667.03;;;8.81;100.00
13314;BME280;6725;48.112;11.604;2023-03-20T06:25:27;94680.69;;;8.78;100.00
13314;BME280;6725;48.112;11.604;2023-03-20T06:27:52;94683.81;;;8.76;100.00
13314;BME280;6725;48.112;11.604;2023-03-20T06:30:18;94689.19;;;8.83;100.00
13314;BME280;6725;48.112;11.604;2023-03-20T06:32:43;94697.97;;;8.94;100.00
13314;BME280;6725;48.112;11.604;2023-03-20T06:35:09;94705.78;;;8.92;100.00
13314;BME280;6725;48.112;11.604;2023-03-20T06:37:35;94712.41;;;8.91;100.00
13314;BME280;6725;48.112;11.604;2023-03-20T06:40:02;94722.41;;;8.98;100.00
13314;BME280;6725;48.112;11.604;2023-03-20T06:42:28;94738.81;;;8.94;100.00
13314;BME280;6725;48.112;11.604;2023-03-20T06:44:53;94754.38;;;8.94;100.00
13314;BME280;6725;48.112;11.604;2023-03-20T06:47:18;94766.84;;;8.91;100.00
13314;BME280;6725;48.112;11.604;2023-03-20T06:49:44;94777.66;;;8.98;100.00
13314;BME280;6725;48.112;11.604;2023-03-20T06:52:14;94776.88;;;8.98;100.00
13314;BME280;6725;48.112;11.604;2023-03-20T06:54:40;94788.56;;;8.98;100.00
13314;BME280;6725;48.112;11.604;2023-03-20T06:57:06;94795.47;;;9.06;100.00
13314;BME280;6725;48.112;11.604;2023-03-20T06:59:31;94807.06;;;9.10;100.00
13314;BME280;6725;48.112;11.604;2023-03-20T07:01:57;94812.44;;;9.17;100.00
13314;BME280;6725;48.112;11.604;2023-03-20T07:04:22;94817.41;;;9.26;100.00
13314;BME280;6725;48.112;11.604;2023-03-20T07:06:48;94830.06;;;9.39;100.00
13314;BME280;6725;48.112;11.604;2023-03-20T07:09:13;94839.41;;;9.38;100.00
13314;BME280;6725;48.112;11.604;2023-03-20T07:11:38;94858.84;;;9.40;100.00
13314;BME280;6725;48.112;11.604;2023-03-20T07:14:04;94885.28;;;9.43;100.00
13314;BME280;6725;48.112;11.604;2023-03-20T07:16:30;94901.00;;;9.62;100.00
13314;BME280;6725;48.112;11.604;2023-03-20T07:18:56;94903.56;;;9.76;100.00
13314;BME280;6725;48.112;11.604;2023-03-20T07:21:21;94918.59;;;9.88;100.00
13314;BME280;6725;48.112;11.604;2023-03-20T07:23:47;94950.13;;;9.89;100.00
13314;BME280;6725;48.112;11.604;2023-03-20T07:26:12;94958.53;;;10.01;100.00
13314;BME280;6725;48.112;11.604;2023-03-20T07:28:38;94990.75;;;10.13;100.00
13314;BME280;6725;48.112;11.604;2023-03-20T07:31:03;95020.50;;;10.35;100.00
13314;BME280;6725;48.112;11.604;2023-03-20T07:33:29;95062.69;;;10.57;100.00
13314;BME280;6725;48.112;11.604;2023-03-20T07:35:54;95101.47;;;10.75;100.00
13314;BME280;6725;48.112;11.604;2023-03-20T07:38:21;95139.47;;;11.19;100.00
13314;BME280;6725;48.112;11.604;2023-03-20T07:40:47;95209.25;;;11.53;100.00
13314;BME280;6725;48.112;11.604;2023-03-20T07:43:13;95281.16;;;11.54;100.00
13314;BME280;6725;48.112;11.604;2023-03-20T07:45:39;95352.44;;;11.36;100.00
13314;BME280;6725;48.112;11.604;2023-03-20T07:48:05;95384.28;;;11.20;100.00
13314;BME280;6725;48.112;11.604;2023-03-20T07:50:30;95412.47;;;11.10;100.00
13314;BME280;6725;48.112;11.604;2023-03-20T07:52:56;95418.31;;;11.12;100.00
13314;BME280;6725;48.112;11.604;2023-03-20T07:55:21;95428.31;;;11.29;100.00
13314;BME280;6725;48.112;11.604;2023-03-20T07:57:47;95437.91;;;11.44;100.00
13314;BME280;6725;48.112;11.604;2023-03-20T08:00:14;95434.13;;;11.68;100.00
13314;BME280;6725;48.112;11.604;2023-03-20T08:02:40;95460.56;;;11.81;100.00
13314;BME280;6725;48.112;11.604;2023-03-20T08:05:06;95488.63;;;11.89;100.00
13314;BME280;6725;48.112;11.604;2023-03-20T08:07:32;95510.34;;;12.03;100.00
13314;BME280;6725;48.112;11.604;2023-03-20T08:09:58;95544.75;;;12.04;100.00
13314;BME280;6725;48.112;11.604;2023-03-20T08:12:23;95559.41;;;12.20;100.00
13314;BME280;6725;48.112;11.604;2023-03-20T08:14:49;95578.19;;;12.52;100.00
13314;BME280;6725;48.112;11.604;2023-03-20T08:17:14;95597.38;;;13.12;100.00
13314;BME280;6725;48.112;11.604;2023-03-20T08:19:39;95610.16;;;15.47;100.00
13314;BME280;6725;48.112;11.604;2023-03-20T08:22:04;95642.28;;;16.47;100.00
13314;BME280;6725;48.112;11.604;2023-03-20T08:24:30;95652.84;;;17.59;100.00
13314;BME280;6725;48.112;11.604;2023-03-20T08:26:56;95662.16;;;17.24;100.00
13314;BME280;6725;48.112;11.604;2023-03-20T08:29:21;95668.81;;;16.57;100.00
13314;BME280;6725;48.112;11.604;2023-03-20T08:31:47;95672.34;;;16.41;100.00
13314;BME280;6725;48.112;11.604;2023-03-20T08:34:12;95674.44;;;15.89;100.00
13314;BME280;6725;48.112;11.604;2023-03-20T08:36:37;95669.69;;;15.57;100.00
13314;BME280;6725;48.112;11.604;2023-03-20T08:39:06;95661.75;;;14.88;100.00
13314;BME280;6725;48.112;11.604;2023-03-20T08:41:35;95662.88;;;14.91;100.00
13314;BME280;6725;48.112;11.604;2023-03-20T08:44:01;95660.13;;;15.62;100.00
13314;BME280;6725;48.112;11.604;2023-03-20T08:46:27;95657.38;;;15.26;100.00
13314;BME280;6725;48.112;11.604;2023-03-20T08:48:52;95653.13;;;14.86;100.00
13314;BME280;6725;48.112;11.604;2023-03-20T08:51:18;95651.59;;;14.85;100.00
13314;BME280;6725;48.112;11.604;2023-03-20T08:53:43;95657.19;;;14.39;100.00
13314;BME280;6725;48.112;11.604;2023-03-20T08:56:09;95659.66;;;14.34;100.00
13314;BME280;6725;48.112;11.604;2023-03-20T08:58:34;95663.06;;;14.18;100.00
13314;BME280;6725;48.112;11.604;2023-03-20T09:01:04;95664.66;;;13.93;100.00
13314;BME280;6725;48.112;11.604;2023-03-20T09:03:30;95665.69;;;14.02;100.00
13314;BME280;6725;48.112;11.604;2023-03-20T09:05:56;95666.00;;;13.85;100.00
13314;BME280;6725;48.112;11.604;2023-03-20T09:08:21;95669.25;;;13.76;100.00
13314;BME280;6725;48.112;11.604;2023-03-20T09:10:47;95662.66;;;13.47;100.00
13314;BME280;6725;48.112;11.604;2023-03-20T09:13:15;95670.81;;;13.77;100.00
13314;BME280;6725;48.112;11.604;2023-03-20T09:15:41;95663.00;;;13.76;100.00
13314;BME280;6725;48.112;11.604;2023-03-20T09:18:06;95670.00;;;14.03;100.00
13314;BME280;6725;48.112;11.604;2023-03-20T09:20:32;95667.25;;;14.26;100.00
13314;BME280;6725;48.112;11.604;2023-03-20T09:22:57;95664.56;;;13.77;100.00
13314;BME280;6725;48.112;11.604;2023-03-20T09:25:23;95665.75;;;13.99;100.00
13314;BME280;6725;48.112;11.604;2023-03-20T09:27:52;95658.53;;;14.08;100.00
13314;BME280;6725;48.112;11.604;2023-03-20T09:30:20;95673.59;;;14.00;100.00
13314;BME280;6725;48.112;11.604;2023-03-20T09:32:46;95675.91;;;14.02;100.00
13314;BME280;6725;48.112;11.604;2023-03-20T09:35:11;95672.88;;;13.96;100.00
13314;BME280;6725;48.112;11.604;2023-03-20T09:37:37;95675.94;;;13.75;100.00
13314;BME280;6725;48.112;11.604;2023-03-20T09:40:03;95680.84;;;13.87;100.00
13314;BME280;6725;48.112;11.604;2023-03-20T09:48:14;95675.41;;;14.72;100.00
13314;BME280;6725;48.112;11.604;2023-03-20T09:50:51;95665.97;;;14.73;100.00
13314;BME280;6725;48.112;11.604;2023-03-20T09:53:27;95666.94;;;14.63;100.00
13314;BME280;6725;48.112;11.604;2023-03-20T09:55:56;95674.31;;;14.27;100.00
13314;BME280;6725;48.112;11.604;2023-03-20T09:58:29;95672.44;;;14.63;100.00
13314;BME280;6725;48.112;11.604;2023-03-20T10:00:57;95665.88;;;16.48;100.00
13314;BME280;6725;48.112;11.604;2023-03-20T10:03:32;95672.09;;;16.35;100.00
13314;BME280;6725;48.112;11.604;2023-03-20T10:06:06;95672.78;;;15.59;100.00
13314;BME280;6725;48.112;11.604;2023-03-20T10:08:37;95660.19;;;14.87;100.00
13314;BME280;6725;48.112;11.604;2023-03-20T10:11:14;95670.03;;;15.04;100.00
13314;BME280;6725;48.112;11.604;2023-03-20T10:13:50;95666.28;;;15.34;100.00
13314;BME280;6725;48.112;11.604;2023-03-20T10:19:15;95663.31;;;15.05;100.00
13314;BME280;6725;48.112;11.604;2023-03-20T10:22:14;95667.16;;;14.92;100.00
13314;BME280;6725;48.112;11.604;2023-03-20T10:24:48;95656.66;;;14.67;100.00
13314;BME280;6725;48.112;11.604;2023-03-20T10:27:24;95666.75;;;14.54;100.00
13314;BME280;6725;48.112;11.604;2023-03-20T10:30:25;95659.66;;;14.34;100.00
13314;BME280;6725;48.112;11.604;2023-03-20T10:41:16;95653.72;;;14.58;100.00
13314;BME280;6725;48.112;11.604;2023-03-20T10:43:44;95645.53;;;14.74;100.00
13314;BME280;6725;48.112;11.604;2023-03-20T10:46:24;95642.28;;;14.79;100.00
13314;BME280;6725;48.112;11.604;2023-03-20T10:48:57;95652.66;;;14.91;100.00
13314;BME280;6725;48.112;11.604;2023-03-20T10:51:55;95637.44;;;15.03;100.00
13314;BME280;6725;48.112;11.604;2023-03-20T10:55:26;95626.00;;;15.24;100.00
13314;BME280;6725;48.112;11.604;2023-03-20T10:57:25;95632.16;;;16.11;100.00
13314;BME280;6725;48.112;11.604;2023-03-20T10:59:55;95628.91;;;16.74;100.00
13314;BME280;6725;48.112;11.604;2023-03-20T11:02:23;95625.16;;;16.68;100.00
13314;BME280;6725;48.112;11.604;2023-03-20T11:04:49;95625.50;;;17.86;100.00
13314;BME280;6725;48.112;11.604;2023-03-20T11:07:33;95620.16;;;19.15;100.00
13314;BME280;6725;48.112;11.604;2023-03-20T11:12:31;95629.91;;;19.50;100.00
13314;BME280;6725;48.112;11.604;2023-03-20T11:14:59;95615.13;;;20.59;100.00
13314;BME280;6725;48.112;11.604;2023-03-20T11:17:27;95609.44;;;19.87;97.49
13314;BME280;6725;48.112;11.604;2023-03-20T11:19:53;95617.09;;;20.32;93.44
13314;BME280;6725;48.112;11.604;2023-03-20T11:22:27;95613.88;;;20.78;86.00
13314;BME280;6725;48.112;11.604;2023-03-20T11:24:55;95610.16;;;20.45;89.15
13314;BME280;6725;48.112;11.604;2023-03-20T11:27:32;95615.22;;;20.20;86.88
13314;BME280;6725;48.112;11.604;2023-03-20T11:30:01;95608.97;;;19.98;88.26
13314;BME280;6725;48.112;11.604;2023-03-20T11:34:56;95617.50;;;18.59;95.33
13314;BME280;6725;48.112;11.604;2023-03-20T11:37:24;95613.44;;;17.92;100.00
13314;BME280;6725;48.112;11.604;2023-03-20T11:39:57;95609.28;;;17.75;100.00
13314;BME280;6725;48.112;11.604;2023-03-20T11:42:26;95612.81;;;17.38;100.00
13314;BME280;6725;48.112;11.604;2023-03-20T11:44:57;95614.50;;;16.95;100.00
13314;BME280;6725;48.112;11.604;2023-03-20T11:47:25;95610.00;;;17.01;100.00
13314;BME280;6725;48.112;11.604;2023-03-20T11:49:56;95608.03;;;17.14;100.00
13314;BME280;6725;48.112;11.604;2023-03-20T11:52:28;95592.47;;;17.07;100.00
13314;BME280;6725;48.112;11.604;2023-03-20T11:54:57;95593.41;;;16.76;100.00
13314;BME280;6725;48.112;11.604;2023-03-20T11:57:31;95589.06;;;17.16;100.00
13314;BME280;6725;48.112;11.604;2023-03-20T12:00:02;95599.28;;;16.90;100.00
13314;BME280;6725;48.112;11.604;2023-03-20T12:02:28;95587.72;;;16.54;100.00
13314;BME280;6725;48.112;11.604;2023-03-20T12:04:58;95585.25;;;16.85;100.00
13314;BME280;6725;48.112;11.604;2023-03-20T12:07:26;95583.28;;;16.98;100.00
13314;BME280;6725;48.112;11.604;2023-03-20T12:10:06;95594.28;;;16.73;100.00
13314;BME280;6725;48.112;11.604;2023-03-20T12:12:37;95595.41;;;16.88;100.00
13314;BME280;6725;48.112;11.604;2023-03-20T12:15:29;95589.06;;;16.62;100.00
13314;BME280;6725;48.112;11.604;2023-03-20T12:18:03;95592.81;;;16.39;100.00
13314;BME280;6725;48.112;11.604;2023-03-20T12:20:53;95598.31;;;16.39;100.00
13314;BME280;6725;48.112;11.604;2023-03-20T12:23:35;95592.81;;;16.11;100.00
13314;BME280;6725;48.112;11.604;2023-03-20T12:26:12;95594.41;;;16.24;100.00
13314;BME280;6725;48.112;11.604;2023-03-20T12:33:46;95579.09;;;16.52;100.00
13314;BME280;6725;48.112;11.604;2023-03-20T12:36:16;95581.97;;;16.61;100.00
13314;BME280;6725;48.112;11.604;2023-03-20T12:38:43;95581.13;;;16.64;100.00
13314;BME280;6725;48.112;11.604;2023-03-20T12:41:13;95579.97;;;16.78;100.00
13314;BME280;6725;48.112;11.604;2023-03-20T12:46:46;95581.78;;;16.39;100.00
13314;BME280;6725;48.112;11.604;2023-03-20T12:52:15;95585.91;;;15.42;100.00
13314;BME280;6725;48.112;11.604;2023-03-20T13:06:19;95586.66;;;15.07;100.00
13314;BME280;6725;48.112;11.604;2023-03-20T13:22:34;95585.19;;;15.03;100.00
13314;BME280;6725;48.112;11.604;2023-03-20T13:30:55;95582.38;;;15.22;100.00
13314;BME280;6725;48.112;11.604;2023-03-20T13:38:40;95584.66;;;15.91;100.00
13314;BME280;6725;48.112;11.604;2023-03-20T13:41:08;95583.13;;;15.90;100.00
13314;BME280;6725;48.112;11.604;2023-03-20T13:43:42;95571.63;;;16.08;100.00
13314;BME280;6725;48.112;11.604;2023-03-20T13:46:15;95565.69;;;16.09;100.00
13314;BME280;6725;48.112;11.604;2023-03-20T13:48:43;95562.34;;;16.02;100.00
13314;BME280;6725;48.112;11.604;2023-03-20T13:51:16;95568.41;;;15.81;100.00
13314;BME280;6725;48.112;11.604;2023-03-20T13:53:59;95566.66;;;15.87;100.00
13314;BME280;6725;48.112;11.604;2023-03-20T14:04:45;95555.09;;;15.47;100.00
13314;BME280;6725;48.112;11.604;2023-03-20T14:07:32;95566.25;;;15.24;100.00
13314;BME280;6725;48.112;11.604;2023-03-20T14:12:49;95553.91;;;14.97;100.00
13314;BME280;6725;48.112;11.604;2023-03-20T14:15:18;95550.34;;;14.80;100.00
13314;BME280;6725;48.112;11.604;2023-03-20T14:17:46;95549.72;;;14.73;100.00
13314;BME280;6725;48.112;11.604;2023-03-20T14:22:45;95546.94;;;14.57;100.00
13314;BME280;6725;48.112;11.604;2023-03-20T14:25:17;95548.06;;;14.59;100.00
13314;BME280;6725;48.112;11.604;2023-03-20T14:27:58;95541.22;;;14.83;100.00
13314;BME280;6725;48.112;11.604;2023-03-20T14:32:59;95540.44;;;15.02;100.00
13314;BME280;6725;48.112;11.604;2023-03-20T14:35:35;95536.13;;;15.17;100.00
13314;BME280;6725;48.112;11.604;2023-03-20T14:38:09;95536.34;;;15.42;100.00
13314;BME280;6725;48.112;11.604;2023-03-20T14:40:46;95535.28;;;15.52;100.00
13314;BME280;6725;48.112;11.604;2023-03-20T14:46:15;95529.28;;;15.41;100.00
13314;BME280;6725;48.112;11.604;2023-03-20T14:48:50;95529.47;;;15.50;100.00
13314;BME280;6725;48.112;11.604;2023-03-20T14:56:45;95516.72;;;15.24;100.00
13314;BME280;6725;48.112;11.604;2023-03-20T14:59:13;95518.41;;;15.18;100.00
13314;BME280;6725;48.112;11.604;2023-03-20T15:02:01;95520.84;;;15.32;100.00
13314;BME280;6725;48.112;11.604;2023-03-20T15:04:38;95525.56;;;15.32;100.00
13314;BME280;6725;48.112;11.604;2023-03-20T15:07:25;95520.47;;;15.30;100.00
13314;BME280;6725;48.112;11.604;2023-03-20T15:09:54;95513.28;;;15.20;100.00
13314;BME280;6725;48.112;11.604;2023-03-20T15:12:29;95523.41;;;15.23;100.00
13314;BME280;6725;48.112;11.604;2023-03-20T15:14:59;95521.34;;;15.27;100.00
13314;BME280;6725;48.112;11.604;2023-03-20T15:17:40;95521.34;;;15.27;100.00
13314;BME280;6725;48.112;11.604;2023-03-20T15:20:17;95517.22;;;15.19;100.00
13314;BME280;6725;48.112;11.604;2023-03-20T15:22:53;95520.13;;;15.12;100.00
13314;BME280;6725;48.112;11.604;2023-03-20T15:25:22;95516.25;;;14.94;100.00
13314;BME280;6725;48.112;11.604;2023-03-20T15:27:48;95510.81;;;14.90;100.00
13314;BME280;6725;48.112;11.604;2023-03-20T15:30:19;95517.00;;;14.78;100.00